Time;durP1;ratioP1;P1;durP2;ratioP2;P2;SDS_P1;SDS_P2;PMS_P1;PMS_P2;Temp;Humidity;BMP_temperature;BMP_pressure;BME280_temperature;BME280_humidity;BME280_pressure;Samples;Min_cycle;Max_cycle;Signal;HPM_P1;HPM_P2
2022/03/14 00:01:07;;;;;;;;;;;6.90;88.90;;;;;;5094405;28;19915;-73
2022/03/14 00:03:41;;;;;;;;;;;6.90;88.90;;;;;;5094962;28;19908;-73
2022/03/14 00:06:08;;;;;;;;;;;6.90;89.00;;;;;;5094575;28;19951;-73
2022/03/14 00:08:33;;;;;;;;;;;6.80;89.20;;;;;;5094574;28;19912;-73
2022/03/14 00:10:59;;;;;;;;;;;6.80;89.50;;;;;;5094530;28;20301;-73
2022/03/14 00:13:25;;;;;;;;;;;6.80;89.70;;;;;;5094584;28;19916;-73
2022/03/14 00:15:50;;;;;;;;;;;6.80;90.00;;;;;;5094454;28;20026;-73
2022/03/14 00:18:18;;;;;;;;;;;6.80;90.00;;;;;;5094369;28;19960;-73
2022/03/14 00:20:46;;;;;;;;;;;6.70;90.00;;;;;;5094443;28;19916;-73
2022/03/14 00:23:12;;;;;;;;;;;6.70;90.00;;;;;;5094676;28;19951;-73
2022/03/14 00:25:37;;;;;;;;;;;6.70;89.90;;;;;;5094910;28;19962;-73
2022/03/14 00:28:03;;;;;;;;;;;6.70;90.00;;;;;;5094501;28;19965;-73
2022/03/14 00:30:29;;;;;;;;;;;6.70;90.00;;;;;;5094381;28;19916;-73
2022/03/14 00:32:56;;;;;;;;;;;6.70;90.00;;;;;;5092935;28;20370;-73
2022/03/14 00:35:21;;;;;;;;;;;6.70;90.00;;;;;;5094313;28;20424;-73
2022/03/14 00:37:47;;;;;;;;;;;6.70;90.10;;;;;;5094394;28;19924;-73
2022/03/14 00:40:14;;;;;;;;;;;6.70;90.10;;;;;;5094432;28;19908;-73
2022/03/14 00:42:39;;;;;;;;;;;6.70;90.10;;;;;;5093290;28;19912;-73
2022/03/14 00:45:05;;;;;;;;;;;6.60;90.20;;;;;;5093138;28;19912;-73
2022/03/14 00:47:31;;;;;;;;;;;6.60;90.30;;;;;;5093037;28;19919;-73
2022/03/14 00:49:56;;;;;;;;;;;6.60;90.30;;;;;;5094290;28;20377;-73
2022/03/14 00:52:22;;;;;;;;;;;6.60;90.30;;;;;;5094098;28;19912;-73
2022/03/14 00:54:48;;;;;;;;;;;6.60;90.30;;;;;;5094092;28;20016;-73
2022/03/14 00:57:14;;;;;;;;;;;6.60;90.30;;;;;;5091750;28;19916;-73
2022/03/14 00:59:40;;;;;;;;;;;6.60;90.40;;;;;;5091129;28;19939;-73
2022/03/14 01:02:07;;;;;;;;;;;6.60;90.50;;;;;;5091061;28;20421;-73
2022/03/14 01:04:32;;;;;;;;;;;6.60;90.60;;;;;;5089684;28;20371;-73
2022/03/14 01:06:58;;;;;;;;;;;6.50;90.60;;;;;;5090879;28;20049;-73
2022/03/14 01:09:23;;;;;;;;;;;6.50;90.60;;;;;;5089625;28;19970;-73
2022/03/14 01:11:49;;;;;;;;;;;6.50;90.60;;;;;;5090901;28;19919;-73
2022/03/14 01:14:15;;;;;;;;;;;6.50;90.70;;;;;;5090749;28;19908;-73
2022/03/14 01:16:41;;;;;;;;;;;6.50;90.80;;;;;;5090901;28;19912;-73
2022/03/14 01:19:11;;;;;;;;;;;6.40;90.80;;;;;;5090585;28;20313;-73
2022/03/14 01:21:38;;;;;;;;;;;6.40;90.80;;;;;;5090679;28;19938;-73
2022/03/14 01:24:03;;;;;;;;;;;6.40;91.00;;;;;;5090620;28;19912;-73
2022/03/14 01:26:29;;;;;;;;;;;6.40;91.00;;;;;;5090820;28;20361;-73
2022/03/14 01:28:55;;;;;;;;;;;6.40;91.10;;;;;;5090934;28;19948;-73
2022/03/14 01:31:20;;;;;;;;;;;6.40;91.20;;;;;;5090295;28;19924;-73
2022/03/14 01:33:46;;;;;;;;;;;6.40;91.20;;;;;;5090365;28;19973;-73
2022/03/14 01:36:11;;;;;;;;;;;6.40;91.20;;;;;;5088891;28;20271;-73
2022/03/14 01:38:37;;;;;;;;;;;6.30;91.20;;;;;;5089099;28;19951;-73
2022/03/14 01:41:02;;;;;;;;;;;6.30;91.20;;;;;;5090319;28;19919;-73
2022/03/14 01:43:28;;;;;;;;;;;6.30;91.30;;;;;;5090187;28;20011;-73
2022/03/14 01:45:57;;;;;;;;;;;6.30;91.40;;;;;;5090192;28;19917;-73
2022/03/14 01:48:24;;;;;;;;;;;6.30;91.40;;;;;;5090108;28;19969;-73
2022/03/14 01:50:50;;;;;;;;;;;6.30;91.50;;;;;;5090134;28;19912;-73
2022/03/14 01:53:16;;;;;;;;;;;6.20;91.50;;;;;;5090026;28;19919;-73
2022/03/14 01:55:42;;;;;;;;;;;6.20;91.60;;;;;;5089987;28;19908;-73
2022/03/14 01:58:07;;;;;;;;;;;6.20;91.60;;;;;;5089945;28;20259;-73
2022/03/14 02:00:33;;;;;;;;;;;6.20;91.60;;;;;;5090000;28;19952;-73
2022/03/14 02:02:58;;;;;;;;;;;6.10;91.60;;;;;;5089839;28;19913;-73
2022/03/14 02:05:24;;;;;;;;;;;6.10;91.60;;;;;;5089763;28;19935;-73
2022/03/14 02:07:50;;;;;;;;;;;6.10;91.60;;;;;;5089750;28;19915;-73
2022/03/14 02:10:16;;;;;;;;;;;6.10;91.70;;;;;;5089644;28;19916;-73
2022/03/14 02:12:44;;;;;;;;;;;6.10;91.80;;;;;;5088265;28;19916;-73
2022/03/14 02:15:10;;;;;;;;;;;6.00;91.80;;;;;;5089633;28;19919;-73
2022/03/14 02:17:35;;;;;;;;;;;6.00;91.80;;;;;;5088237;28;19921;-73
2022/03/14 02:20:01;;;;;;;;;;;6.00;91.90;;;;;;5089986;28;19976;-73
2022/03/14 02:22:27;;;;;;;;;;;5.90;91.90;;;;;;5089477;28;19912;-73
2022/03/14 02:24:53;;;;;;;;;;;5.90;92.00;;;;;;5089410;28;19912;-73
2022/03/14 02:27:19;;;;;;;;;;;5.90;92.00;;;;;;5089362;28;19953;-73
2022/03/14 02:29:45;;;;;;;;;;;5.90;92.00;;;;;;5089445;28;20286;-73
2022/03/14 02:32:11;;;;;;;;;;;5.80;92.10;;;;;;5089183;28;19912;-73
2022/03/14 02:34:37;;;;;;;;;;;5.80;92.20;;;;;;5089256;28;20293;-73
2022/03/14 02:37:04;;;;;;;;;;;5.80;92.20;;;;;;5089171;28;19920;-73
2022/03/14 02:39:32;;;;;;;;;;;5.80;92.30;;;;;;5089230;28;20320;-73
2022/03/14 02:41:59;;;;;;;;;;;5.80;92.40;;;;;;5089265;28;20289;-73
2022/03/14 02:44:24;;;;;;;;;;;5.80;92.30;;;;;;5089109;28;19991;-73
2022/03/14 02:46:50;;;;;;;;;;;5.80;92.30;;;;;;5087599;28;19951;-73
2022/03/14 02:49:15;;;;;;;;;;;5.80;92.40;;;;;;5087639;28;20420;-73
2022/03/14 02:51:42;;;;;;;;;;;5.80;92.50;;;;;;5088848;28;19916;-73
2022/03/14 02:54:08;;;;;;;;;;;5.80;92.60;;;;;;5087882;28;20339;-73
2022/03/14 02:56:34;;;;;;;;;;;5.70;92.60;;;;;;5088757;28;19926;-73
2022/03/14 02:59:00;;;;;;;;;;;5.80;92.70;;;;;;5088966;28;20332;-73
2022/03/14 03:01:26;;;;;;;;;;;5.80;92.70;;;;;;5088903;28;19911;-73
2022/03/14 03:03:51;;;;;;;;;;;5.70;92.70;;;;;;5088795;28;19964;-72
2022/03/14 03:06:22;;;;;;;;;;;5.70;92.80;;;;;;5087546;28;19916;-73
2022/03/14 03:08:52;;;;;;;;;;;5.70;92.80;;;;;;5087480;28;19950;-73
2022/03/14 03:11:18;;;;;;;;;;;5.70;92.80;;;;;;5088600;28;19920;-73
2022/03/14 03:13:45;;;;;;;;;;;5.70;92.90;;;;;;5088382;28;19912;-73
2022/03/14 03:16:13;;;;;;;;;;;5.70;92.90;;;;;;5088561;28;20274;-73
2022/03/14 03:18:39;;;;;;;;;;;5.70;92.90;;;;;;5088642;28;19965;-73
2022/03/14 03:21:04;;;;;;;;;;;5.70;93.10;;;;;;5087968;28;19991;-73
2022/03/14 03:23:30;;;;;;;;;;;5.70;93.10;;;;;;5088558;28;19958;-73
2022/03/14 03:25:55;;;;;;;;;;;5.70;93.10;;;;;;5088374;28;19924;-73
2022/03/14 03:28:21;;;;;;;;;;;5.70;93.10;;;;;;5086881;28;19908;-73
2022/03/14 03:30:47;;;;;;;;;;;5.70;93.10;;;;;;5088452;28;19923;-73
2022/03/14 03:33:12;;;;;;;;;;;5.70;93.20;;;;;;5088288;28;19916;-73
2022/03/14 03:35:38;;;;;;;;;;;5.60;93.10;;;;;;5088352;28;19908;-73
2022/03/14 03:38:04;;;;;;;;;;;5.60;93.20;;;;;;5088130;28;20371;-73
2022/03/14 03:40:29;;;;;;;;;;;5.60;93.20;;;;;;5088341;28;19908;-73
2022/03/14 03:42:55;;;;;;;;;;;5.60;93.30;;;;;;5088214;28;19917;-73
2022/03/14 03:45:20;;;;;;;;;;;5.60;93.30;;;;;;5088192;28;20454;-73
2022/03/14 03:47:46;;;;;;;;;;;5.60;93.30;;;;;;5088494;28;20274;-73
2022/03/14 03:50:12;;;;;;;;;;;5.60;93.40;;;;;;5086868;28;19915;-73
2022/03/14 03:52:38;;;;;;;;;;;5.50;93.30;;;;;;5088069;28;19945;-73
2022/03/14 03:55:04;;;;;;;;;;;5.50;93.40;;;;;;5086800;28;20354;-73
2022/03/14 03:57:30;;;;;;;;;;;5.50;93.40;;;;;;5087951;28;19916;-73
2022/03/14 03:59:56;;;;;;;;;;;5.50;93.50;;;;;;5088209;28;19919;-73
2022/03/14 04:02:22;;;;;;;;;;;5.50;93.60;;;;;;5088241;28;19908;-73
2022/03/14 04:04:49;;;;;;;;;;;5.50;93.50;;;;;;5088052;28;19919;-73
2022/03/14 04:07:18;;;;;;;;;;;5.50;93.50;;;;;;5087995;28;19916;-73
2022/03/14 04:09:44;;;;;;;;;;;5.50;93.80;;;;;;5088001;28;19914;-73
2022/03/14 04:12:10;;;;;;;;;;;5.50;93.70;;;;;;5087929;28;19923;-73
2022/03/14 04:14:38;;;;;;;;;;;5.50;93.70;;;;;;5087921;28;20402;-73
2022/03/14 04:17:04;;;;;;;;;;;5.40;93.80;;;;;;5088155;28;20317;-73
2022/03/14 04:19:30;;;;;;;;;;;5.50;93.80;;;;;;5087815;28;19943;-73
2022/03/14 04:21:56;;;;;;;;;;;5.50;93.90;;;;;;5087862;28;20017;-73
2022/03/14 04:24:22;;;;;;;;;;;5.40;93.90;;;;;;5087907;28;19908;-73
2022/03/14 04:26:49;;;;;;;;;;;5.40;93.90;;;;;;5087659;28;19923;-73
2022/03/14 04:29:14;;;;;;;;;;;5.40;94.00;;;;;;5087875;28;19916;-73
2022/03/14 04:31:40;;;;;;;;;;;5.40;94.10;;;;;;5088096;28;19920;-73
2022/03/14 04:34:05;;;;;;;;;;;5.40;94.10;;;;;;5091268;28;20416;-73
2022/03/14 04:36:31;;;;;;;;;;;5.40;94.10;;;;;;5090261;28;19936;-73
2022/03/14 04:38:57;;;;;;;;;;;5.40;94.20;;;;;;5091591;28;20366;-73
2022/03/14 04:41:22;;;;;;;;;;;5.40;94.20;;;;;;5091467;28;20433;-73
2022/03/14 04:43:48;;;;;;;;;;;5.40;94.30;;;;;;5091378;28;19916;-73
2022/03/14 04:46:14;;;;;;;;;;;5.40;94.40;;;;;;5091309;28;19912;-73
2022/03/14 04:48:39;;;;;;;;;;;5.40;94.50;;;;;;5091433;28;20312;-73
2022/03/14 04:51:05;;;;;;;;;;;5.40;94.50;;;;;;5091138;28;19938;-73
2022/03/14 04:53:30;;;;;;;;;;;5.40;94.60;;;;;;5091189;28;19918;-73
2022/03/14 04:55:56;;;;;;;;;;;5.40;94.70;;;;;;5091186;28;20283;-73
2022/03/14 04:58:21;;;;;;;;;;;5.40;95.00;;;;;;5090973;28;19916;-73
2022/03/14 05:00:47;;;;;;;;;;;5.40;94.80;;;;;;5091082;28;20499;-73
2022/03/14 05:03:13;;;;;;;;;;;5.50;94.90;;;;;;5091063;28;19909;-73
2022/03/14 05:05:39;;;;;;;;;;;5.50;95.00;;;;;;5090918;28;19920;-73
2022/03/14 05:08:05;;;;;;;;;;;5.50;95.00;;;;;;5089730;28;19915;-73
2022/03/14 05:10:31;;;;;;;;;;;5.50;95.00;;;;;;5090874;28;19916;-73
2022/03/14 05:13:00;;;;;;;;;;;5.50;95.00;;;;;;5090738;28;19912;-73
2022/03/14 05:15:26;;;;;;;;;;;5.50;95.00;;;;;;5090960;28;19912;-73
2022/03/14 05:17:52;;;;;;;;;;;5.50;95.00;;;;;;5090717;28;20270;-73
2022/03/14 05:20:18;;;;;;;;;;;5.40;95.00;;;;;;5090718;28;19913;-73
2022/03/14 05:22:50;;;;;;;;;;;5.40;95.10;;;;;;5090657;28;19924;-73
2022/03/14 05:25:19;;;;;;;;;;;5.40;95.20;;;;;;5090645;28;20338;-73
2022/03/14 05:27:45;;;;;;;;;;;5.40;95.30;;;;;;5090593;28;19908;-73
2022/03/14 05:30:11;;;;;;;;;;;5.40;95.20;;;;;;5090496;28;19914;-73
2022/03/14 05:32:39;;;;;;;;;;;5.40;95.30;;;;;;5090858;28;19955;-73
2022/03/14 05:35:05;;;;;;;;;;;5.40;95.30;;;;;;5090495;28;20375;-73
2022/03/14 05:37:31;;;;;;;;;;;5.40;95.30;;;;;;5089932;28;20006;-73
2022/03/14 05:39:58;;;;;;;;;;;5.40;95.40;;;;;;5087747;28;20466;-73
2022/03/14 05:42:25;;;;;;;;;;;5.40;95.40;;;;;;5089534;28;19912;-73
2022/03/14 05:44:51;;;;;;;;;;;5.40;95.50;;;;;;5088949;28;19931;-73
2022/03/14 05:47:17;;;;;;;;;;;5.40;95.50;;;;;;5089406;28;20374;-73
2022/03/14 05:49:42;;;;;;;;;;;5.30;95.50;;;;;;5090203;28;19930;-73
2022/03/14 05:52:08;;;;;;;;;;;5.40;95.50;;;;;;5089992;28;20014;-73
2022/03/14 05:54:36;;;;;;;;;;;5.40;95.50;;;;;;5089993;28;19908;-70
2022/03/14 05:57:01;;;;;;;;;;;5.30;95.50;;;;;;5089939;28;19919;-73
2022/03/14 05:59:27;;;;;;;;;;;5.30;95.60;;;;;;5089882;28;19912;-72
2022/03/14 06:01:53;;;;;;;;;;;5.30;95.70;;;;;;5089973;28;19919;-73
2022/03/14 06:04:18;;;;;;;;;;;5.30;95.70;;;;;;5089954;28;20307;-73
2022/03/14 06:06:44;;;;;;;;;;;5.30;95.80;;;;;;5089608;28;19962;-73
2022/03/14 06:09:09;;;;;;;;;;;5.30;95.80;;;;;;5089674;28;19916;-73
2022/03/14 06:11:38;;;;;;;;;;;5.30;95.80;;;;;;5089604;28;20271;-73
2022/03/14 06:14:05;;;;;;;;;;;5.30;95.80;;;;;;5089564;28;20635;-73
2022/03/14 06:16:30;;;;;;;;;;;5.40;95.90;;;;;;5089496;28;19920;-72
2022/03/14 06:18:56;;;;;;;;;;;5.30;95.90;;;;;;5089413;28;20262;-74
2022/03/14 06:21:22;;;;;;;;;;;5.30;95.90;;;;;;5089448;28;19908;-73
2022/03/14 06:23:47;;;;;;;;;;;5.30;96.00;;;;;;5088064;28;20374;-74
2022/03/14 06:26:14;;;;;;;;;;;5.30;96.00;;;;;;5089632;28;19915;-73
2022/03/14 06:28:40;;;;;;;;;;;5.30;96.10;;;;;;5089200;28;19959;-73
2022/03/14 06:31:06;;;;;;;;;;;5.30;96.10;;;;;;5089038;28;19951;-73
2022/03/14 06:33:32;;;;;;;;;;;5.40;96.20;;;;;;5089012;28;19931;-73
2022/03/14 06:35:57;;;;;;;;;;;5.40;96.30;;;;;;5088719;28;20326;-73
2022/03/14 06:38:23;;;;;;;;;;;5.40;96.40;;;;;;5089227;28;20307;-73
2022/03/14 06:40:48;;;;;;;;;;;5.40;96.40;;;;;;5088014;28;19962;-73
2022/03/14 06:43:14;;;;;;;;;;;5.40;96.50;;;;;;5087904;28;19920;-73
2022/03/14 06:45:41;;;;;;;;;;;5.40;96.50;;;;;;5089020;28;19916;-73
2022/03/14 06:48:06;;;;;;;;;;;5.50;96.50;;;;;;5089215;28;19953;-73
2022/03/14 06:50:33;;;;;;;;;;;5.60;96.60;;;;;;5088783;28;19950;-73
2022/03/14 06:52:59;;;;;;;;;;;5.70;96.60;;;;;;5088739;28;20029;-73
2022/03/14 06:55:24;;;;;;;;;;;5.80;96.60;;;;;;5087939;28;20396;-73
2022/03/14 06:57:50;;;;;;;;;;;5.90;96.50;;;;;;5088446;28;19912;-73
2022/03/14 07:00:16;;;;;;;;;;;5.90;96.40;;;;;;5088578;28;19920;-73
2022/03/14 07:02:42;;;;;;;;;;;6.00;96.40;;;;;;5088587;28;20366;-73
2022/03/14 07:05:13;;;;;;;;;;;6.00;96.30;;;;;;5088396;28;20259;-73
2022/03/14 07:07:39;;;;;;;;;;;6.00;96.30;;;;;;5088461;28;20390;-73
2022/03/14 07:10:05;;;;;;;;;;;6.00;96.30;;;;;;5088537;28;19943;-73
2022/03/14 07:12:31;;;;;;;;;;;6.10;96.30;;;;;;5087092;28;19955;-73
2022/03/14 07:14:56;;;;;;;;;;;6.10;96.30;;;;;;5088624;28;19964;-73
2022/03/14 07:17:22;;;;;;;;;;;6.10;96.40;;;;;;5088319;28;19908;-73
2022/03/14 07:19:48;;;;;;;;;;;6.20;96.50;;;;;;5088223;28;19912;-73
2022/03/14 07:22:19;;;;;;;;;;;6.30;96.50;;;;;;5088239;28;20274;-73
2022/03/14 07:24:45;;;;;;;;;;;6.40;96.50;;;;;;5086886;28;20019;-74
2022/03/14 07:27:11;;;;;;;;;;;6.50;96.40;;;;;;5088113;28;19931;-73
2022/03/14 07:29:37;;;;;;;;;;;6.60;96.30;;;;;;5087657;28;19912;-74
2022/03/14 07:32:03;;;;;;;;;;;6.70;96.20;;;;;;5087788;28;19916;-74
2022/03/14 07:34:31;;;;;;;;;;;6.80;96.10;;;;;;5086513;28;20441;-73
2022/03/14 07:36:56;;;;;;;;;;;6.80;96.10;;;;;;5087746;28;19928;-73
2022/03/14 07:39:22;;;;;;;;;;;6.90;96.00;;;;;;5086327;28;19919;-73
2022/03/14 07:41:47;;;;;;;;;;;6.90;96.00;;;;;;5088053;28;20002;-73
2022/03/14 07:44:13;;;;;;;;;;;7.00;96.00;;;;;;5088131;28;19924;-73
2022/03/14 07:46:38;;;;;;;;;;;7.00;95.90;;;;;;5086199;28;20366;-73
2022/03/14 07:49:05;;;;;;;;;;;7.00;95.90;;;;;;5087930;28;20370;-73
2022/03/14 07:51:32;;;;;;;;;;;7.10;95.90;;;;;;5087563;28;19923;-73
2022/03/14 07:53:58;;;;;;;;;;;7.10;95.80;;;;;;5088703;28;19920;-73
2022/03/14 07:56:23;;;;;;;;;;;7.10;95.80;;;;;;5087451;28;20337;-73
2022/03/14 07:58:49;;;;;;;;;;;7.20;95.70;;;;;;5087475;28;19912;-73
2022/03/14 08:01:15;;;;;;;;;;;7.20;95.70;;;;;;5087588;28;20388;-73
2022/03/14 08:03:40;;;;;;;;;;;7.20;95.70;;;;;;5087899;28;19938;-73
2022/03/14 08:06:10;;;;;;;;;;;7.20;95.70;;;;;;5086612;28;19970;-74
2022/03/14 08:08:35;;;;;;;;;;;7.20;95.70;;;;;;5090525;28;20002;-73
2022/03/14 08:11:03;;;;;;;;;;;7.30;95.60;;;;;;5089693;28;19912;-73
2022/03/14 08:13:28;;;;;;;;;;;7.30;95.60;;;;;;5091761;28;19916;-73
2022/03/14 08:15:54;;;;;;;;;;;7.30;95.60;;;;;;5091760;28;19909;-73
2022/03/14 08:18:20;;;;;;;;;;;7.30;95.60;;;;;;5091445;28;19922;-73
2022/03/14 08:20:45;;;;;;;;;;;7.30;95.60;;;;;;5091580;28;20023;-74
2022/03/14 08:23:11;;;;;;;;;;;7.20;95.70;;;;;;5090814;28;20424;-73
2022/03/14 08:25:37;;;;;;;;;;;7.20;95.70;;;;;;5090952;28;19961;-73
2022/03/14 08:28:03;;;;;;;;;;;7.20;95.70;;;;;;5090784;28;20149;-73
2022/03/14 08:30:28;;;;;;;;;;;7.20;95.80;;;;;;5092140;28;19912;-73
2022/03/14 08:32:56;;;;;;;;;;;7.20;95.90;;;;;;5090916;28;19980;-74
2022/03/14 08:35:21;;;;;;;;;;;7.20;96.00;;;;;;5090856;28;20290;-72
2022/03/14 08:37:48;;;;;;;;;;;7.20;96.00;;;;;;5090601;28;19924;-73
2022/03/14 08:40:16;;;;;;;;;;;7.10;96.00;;;;;;5090982;28;19909;-73
2022/03/14 08:42:42;;;;;;;;;;;7.10;96.10;;;;;;5089452;28;19912;-73
2022/03/14 08:45:09;;;;;;;;;;;7.20;96.20;;;;;;5091158;28;19913;-73
2022/03/14 08:47:35;;;;;;;;;;;7.20;96.20;;;;;;5090818;28;19908;-73
2022/03/14 08:50:02;;;;;;;;;;;7.20;96.30;;;;;;5090830;28;19923;-74
2022/03/14 08:52:28;;;;;;;;;;;7.20;96.30;;;;;;5090239;28;20097;-74
2022/03/14 08:54:54;;;;;;;;;;;7.20;96.30;;;;;;5090287;28;19912;-74
2022/03/14 08:57:19;;;;;;;;;;;7.20;96.30;;;;;;5090562;28;19919;-74
2022/03/14 08:59:45;;;;;;;;;;;7.20;96.40;;;;;;5090395;28;19912;-74
2022/03/14 09:02:11;;;;;;;;;;;7.20;96.50;;;;;;5090239;28;20359;-74
2022/03/14 09:04:36;;;;;;;;;;;7.30;96.60;;;;;;5089951;28;20285;-74
2022/03/14 09:07:02;;;;;;;;;;;7.30;96.60;;;;;;5090017;28;20407;-74
2022/03/14 09:09:28;;;;;;;;;;;7.30;96.70;;;;;;5088465;28;19916;-75
2022/03/14 09:11:54;;;;;;;;;;;7.20;96.80;;;;;;5089900;28;19915;-75
2022/03/14 09:14:19;;;;;;;;;;;7.30;96.90;;;;;;5090223;28;19912;-74
2022/03/14 09:16:46;;;;;;;;;;;7.30;97.00;;;;;;5090239;28;19912;-75
2022/03/14 09:19:12;;;;;;;;;;;7.30;97.00;;;;;;5089370;28;19959;-76
2022/03/14 09:21:38;;;;;;;;;;;7.40;97.10;;;;;;5090196;28;19908;-75
2022/03/14 09:24:04;;;;;;;;;;;7.40;97.20;;;;;;5089049;28;19920;-75
2022/03/14 09:26:31;;;;;;;;;;;7.40;97.20;;;;;;5089927;28;19911;-74
2022/03/14 09:28:57;;;;;;;;;;;7.40;97.30;;;;;;5088434;28;19917;-74
2022/03/14 09:31:22;;;;;;;;;;;7.50;97.30;;;;;;5087875;28;19919;-75
2022/03/14 09:33:48;;;;;;;;;;;7.50;97.40;;;;;;5088401;28;19942;-75
2022/03/14 09:36:13;;;;;;;;;;;7.60;97.40;;;;;;5089746;28;19924;-75
2022/03/14 09:38:39;;;;;;;;;;;7.70;97.40;;;;;;5089797;28;19920;-75
2022/03/14 09:41:04;;;;;;;;;;;7.70;97.40;;;;;;5090435;28;19912;-74
2022/03/14 09:43:31;;;;;;;;;;;7.70;97.40;;;;;;5089963;28;19918;-74
2022/03/14 09:45:58;;;;;;;;;;;7.80;97.50;;;;;;5091101;28;19934;-77
2022/03/14 09:48:24;;;;;;;;;;;7.80;97.50;;;;;;5091175;28;20016;-75
2022/03/14 09:50:50;;;;;;;;;;;7.80;97.60;;;;;;5090344;28;19925;-75
2022/03/14 09:53:17;;;;;;;;;;;7.90;97.60;;;;;;5088515;28;19930;-75
2022/03/14 09:55:46;;;;;;;;;;;7.90;97.70;;;;;;5090752;28;19908;-76
2022/03/14 09:58:15;;;;;;;;;;;8.00;97.80;;;;;;5090121;28;19987;-74
2022/03/14 10:00:42;;;;;;;;;;;8.10;97.80;;;;;;5089314;28;19943;-75
2022/03/14 10:03:08;;;;;;;;;;;8.20;97.80;;;;;;5088700;28;19931;-72
2022/03/14 10:05:34;;;;;;;;;;;8.30;97.90;;;;;;5089122;28;19908;-73
2022/03/14 10:08:00;;;;;;;;;;;8.40;97.80;;;;;;5087584;28;19922;-74
2022/03/14 10:10:25;;;;;;;;;;;8.50;97.70;;;;;;5089252;28;19916;-74
2022/03/14 10:12:57;;;;;;;;;;;8.50;97.60;;;;;;5087439;28;20017;-73
2022/03/14 10:15:27;;;;;;;;;;;8.50;97.60;;;;;;5086300;28;19915;-74
2022/03/14 10:17:57;;;;;;;;;;;8.50;97.50;;;;;;5080159;28;19916;-73
2022/03/14 10:20:24;;;;;;;;;;;8.40;97.60;;;;;;5089384;28;20238;-74
2022/03/14 10:22:50;;;;;;;;;;;8.40;97.70;;;;;;5089237;28;19920;-74
2022/03/14 10:25:16;;;;;;;;;;;8.40;97.80;;;;;;5089278;28;19915;-74
2022/03/14 10:27:45;;;;;;;;;;;8.40;97.80;;;;;;5087605;28;19923;-75
2022/03/14 10:30:30;;;;;;;;;;;8.50;97.90;;;;;;5088838;28;19908;-74
2022/03/14 10:32:58;;;;;;;;;;;8.60;97.90;;;;;;5085860;28;20393;-74
2022/03/14 10:35:24;;;;;;;;;;;8.70;97.80;;;;;;5087616;28;19920;-75
2022/03/14 10:37:58;;;;;;;;;;;8.80;97.90;;;;;;5088646;28;19924;-74
2022/03/14 10:40:28;;;;;;;;;;;8.90;97.80;;;;;;5088893;28;19908;-74
2022/03/14 10:42:54;;;;;;;;;;;9.00;97.70;;;;;;5086136;28;20382;-74
2022/03/14 10:45:19;;;;;;;;;;;9.10;97.80;;;;;;5088119;28;19912;-75
2022/03/14 10:47:52;;;;;;;;;;;9.30;97.70;;;;;;5089348;28;19912;-74
2022/03/14 10:50:37;;;;;;;;;;;9.40;97.50;;;;;;5089302;28;19908;-76
2022/03/14 10:53:04;;;;;;;;;;;9.50;97.40;;;;;;5089124;28;19935;-74
2022/03/14 10:55:39;;;;;;;;;;;9.50;97.20;;;;;;5089259;28;19908;-74
2022/03/14 10:58:09;;;;;;;;;;;9.50;97.20;;;;;;5089461;28;19948;-75
2022/03/14 11:00:44;;;;;;;;;;;9.40;97.20;;;;;;5088744;28;19912;-76
2022/03/14 11:03:10;;;;;;;;;;;9.40;97.20;;;;;;5087790;28;20464;-74
2022/03/14 11:05:42;;;;;;;;;;;9.40;97.30;;;;;;5088767;28;20003;-75
2022/03/14 11:08:27;;;;;;;;;;;9.40;97.50;;;;;;5088674;28;19918;-75
2022/03/14 11:10:53;;;;;;;;;;;9.50;97.60;;;;;;5082451;28;19952;-71
2022/03/14 11:13:19;;;;;;;;;;;9.50;97.60;;;;;;5088958;28;19917;-74
2022/03/14 11:15:45;;;;;;;;;;;9.60;97.50;;;;;;5089365;28;19913;-76
2022/03/14 11:18:11;;;;;;;;;;;9.70;97.60;;;;;;5089274;28;20286;-78
2022/03/14 11:20:37;;;;;;;;;;;9.70;97.50;;;;;;5088668;28;19915;-76
2022/03/14 11:23:03;;;;;;;;;;;9.70;97.50;;;;;;5071863;28;19994;-77
2022/03/14 11:25:29;;;;;;;;;;;9.70;97.60;;;;;;5088227;28;19934;-75
2022/03/14 11:27:55;;;;;;;;;;;9.90;98.00;;;;;;5088988;28;19909;-75
2022/03/14 11:30:21;;;;;;;;;;;10.10;97.70;;;;;;5088244;28;19934;-75
2022/03/14 11:32:47;;;;;;;;;;;10.30;97.60;;;;;;5088353;28;20392;-75
2022/03/14 11:35:13;;;;;;;;;;;10.40;97.40;;;;;;5088614;28;19999;-75
2022/03/14 11:37:42;;;;;;;;;;;10.50;97.60;;;;;;5088808;28;20386;-75
2022/03/14 11:40:08;;;;;;;;;;;11.00;98.20;;;;;;5088174;28;19908;-75
2022/03/14 11:42:33;;;;;;;;;;;11.50;97.80;;;;;;5087655;28;19916;-75
2022/03/14 11:45:02;;;;;;;;;;;11.70;97.00;;;;;;5088133;28;20244;-75
2022/03/14 11:47:29;;;;;;;;;;;11.90;96.70;;;;;;5086510;28;19912;-74
2022/03/14 11:49:55;;;;;;;;;;;11.90;96.50;;;;;;5087855;28;20304;-73
2022/03/14 11:52:24;;;;;;;;;;;12.10;96.40;;;;;;5088174;28;20006;-74
2022/03/14 11:54:51;;;;;;;;;;;12.20;96.40;;;;;;5087683;28;19961;-74
2022/03/14 11:57:41;;;;;;;;;;;12.30;95.90;;;;;;5087778;28;19908;-75
2022/03/14 12:00:22;;;;;;;;;;;12.40;95.50;;;;;;5087675;28;19915;-74
2022/03/14 12:02:52;;;;;;;;;;;12.40;95.30;;;;;;5086496;28;20274;-75
2022/03/14 12:05:21;;;;;;;;;;;12.40;95.30;;;;;;5087883;28;19916;-73
2022/03/14 12:07:46;;;;;;;;;;;12.40;94.90;;;;;;5087856;28;19912;-74
2022/03/14 12:10:26;;;;;;;;;;;12.40;95.10;;;;;;5088077;28;19929;-74
2022/03/14 12:12:53;;;;;;;;;;;12.40;95.20;;;;;;5087814;28;19927;-75
2022/03/14 12:15:37;;;;;;;;;;;12.40;94.80;;;;;;5087626;28;20007;-75
2022/03/14 12:18:29;;;;;;;;;;;12.20;94.70;;;;;;5085643;28;19947;-74
2022/03/14 12:21:03;;;;;;;;;;;12.00;94.50;;;;;;5083623;28;19998;-75
2022/03/14 12:23:29;;;;;;;;;;;11.90;94.70;;;;;;5088173;28;19970;-74
2022/03/14 12:25:57;;;;;;;;;;;11.80;94.80;;;;;;5087749;28;20248;-74
2022/03/14 12:28:27;;;;;;;;;;;11.60;94.50;;;;;;5086228;28;19908;-75
2022/03/14 12:31:13;;;;;;;;;;;11.40;94.70;;;;;;5087756;28;19961;-75
2022/03/14 12:33:43;;;;;;;;;;;11.30;94.90;;;;;;5086228;28;19938;-74
2022/03/14 12:36:23;;;;;;;;;;;11.30;95.20;;;;;;5099529;28;19920;-74
2022/03/14 12:39:09;;;;;;;;;;;11.50;95.60;;;;;;5066900;28;19995;-74
2022/03/14 12:41:38;;;;;;;;;;;11.90;95.50;;;;;;5067157;28;20370;-75
2022/03/14 12:44:16;;;;;;;;;;;12.10;95.20;;;;;;5066395;28;20325;-74
2022/03/14 12:46:43;;;;;;;;;;;12.40;95.40;;;;;;5067262;28;19915;-75
2022/03/14 12:49:09;;;;;;;;;;;12.70;95.20;;;;;;5072844;28;19956;-74
2022/03/14 12:51:38;;;;;;;;;;;12.90;94.80;;;;;;5087552;28;20354;-75
2022/03/14 12:54:04;;;;;;;;;;;13.10;94.60;;;;;;5088320;28;19946;-74
2022/03/14 12:56:36;;;;;;;;;;;13.20;93.80;;;;;;5090487;28;19953;-74
2022/03/14 12:59:09;;;;;;;;;;;13.20;93.60;;;;;;5084228;28;19908;-74
2022/03/14 13:01:40;;;;;;;;;;;13.10;93.10;;;;;;5089004;28;19917;-74
2022/03/14 13:04:16;;;;;;;;;;;13.10;93.20;;;;;;5089061;28;19994;-76
2022/03/14 13:06:48;;;;;;;;;;;12.90;93.20;;;;;;5091482;28;19908;-74
2022/03/14 13:09:15;;;;;;;;;;;12.80;93.10;;;;;;5090060;28;19919;-74
2022/03/14 13:11:41;;;;;;;;;;;12.60;93.20;;;;;;5091363;28;19919;-75
2022/03/14 13:14:08;;;;;;;;;;;12.50;93.30;;;;;;5089192;28;19931;-74
2022/03/14 13:16:34;;;;;;;;;;;12.40;93.20;;;;;;5088654;28;19916;-76
2022/03/14 13:19:00;;;;;;;;;;;12.30;93.20;;;;;;5071928;28;19977;-75
2022/03/14 13:21:27;;;;;;;;;;;12.10;93.20;;;;;;5089770;28;20085;-74
2022/03/14 13:23:54;;;;;;;;;;;11.90;93.40;;;;;;5089820;28;20413;-75
2022/03/14 13:26:20;;;;;;;;;;;11.80;93.60;;;;;;5090221;28;19916;-75
2022/03/14 13:28:48;;;;;;;;;;;11.60;93.70;;;;;;5089916;28;19916;-74
2022/03/14 13:31:14;;;;;;;;;;;11.60;94.10;;;;;;5091125;28;19919;-74
2022/03/14 13:33:41;;;;;;;;;;;11.60;94.40;;;;;;5091198;28;20311;-75
2022/03/14 13:36:09;;;;;;;;;;;11.70;94.50;;;;;;5091235;28;19916;-76
2022/03/14 13:38:44;;;;;;;;;;;11.90;94.70;;;;;;5090383;28;19995;-73
2022/03/14 13:41:11;;;;;;;;;;;12.30;95.10;;;;;;5091274;28;19916;-74
2022/03/14 13:43:41;;;;;;;;;;;12.80;95.10;;;;;;5090280;28;20274;-75
2022/03/14 13:46:23;;;;;;;;;;;13.10;95.00;;;;;;5088900;28;20419;-75
2022/03/14 13:48:50;;;;;;;;;;;13.20;94.60;;;;;;5088808;28;19915;-73
2022/03/14 13:51:16;;;;;;;;;;;13.10;94.00;;;;;;5090499;28;20501;-74
2022/03/14 13:53:46;;;;;;;;;;;13.00;93.70;;;;;;5090647;28;19916;-75
2022/03/14 13:56:12;;;;;;;;;;;12.70;92.80;;;;;;5090799;28;20531;-73
2022/03/14 13:58:38;;;;;;;;;;;12.30;92.80;;;;;;5090436;28;20358;-75
2022/03/14 14:01:04;;;;;;;;;;;12.20;93.30;;;;;;5089048;28;20366;-75
2022/03/14 14:03:30;;;;;;;;;;;12.40;94.20;;;;;;5090752;28;19928;-72
2022/03/14 14:06:12;;;;;;;;;;;12.80;94.50;;;;;;5090039;28;19970;-75
2022/03/14 14:08:37;;;;;;;;;;;13.10;94.40;;;;;;5090412;28;19938;-74
2022/03/14 14:11:03;;;;;;;;;;;13.40;93.80;;;;;;5090623;28;19916;-65
2022/03/14 14:13:46;;;;;;;;;;;13.40;93.70;;;;;;5090410;28;20259;-74
2022/03/14 14:16:15;;;;;;;;;;;13.50;93.60;;;;;;5089218;28;19995;-74
2022/03/14 14:18:41;;;;;;;;;;;13.50;93.50;;;;;;5087623;28;19909;-73
2022/03/14 14:21:15;;;;;;;;;;;13.40;93.10;;;;;;5089770;28;19919;-74
2022/03/14 14:23:41;;;;;;;;;;;13.20;93.10;;;;;;5087167;28;19908;-75
2022/03/14 14:26:06;;;;;;;;;;;13.20;92.90;;;;;;5089862;28;19912;-75
2022/03/14 14:28:32;;;;;;;;;;;13.00;93.00;;;;;;5089615;28;19962;-74